sensor_id;sensor_type;location;lat;lon;timestamp;pressure;altitude;pressure_sealevel;temperature;humidity
4022;BME280;2025;48.260;16.432;2023-07-09T00:02:12;100248.97;;;16.92;69.33
4022;BME280;2025;48.260;16.432;2023-07-09T00:04:40;100244.25;;;16.87;69.57
4022;BME280;2025;48.260;16.432;2023-07-09T00:07:13;100242.19;;;16.82;69.79
4022;BME280;2025;48.260;16.432;2023-07-09T00:09:42;100245.25;;;16.79;69.64
4022;BME280;2025;48.260;16.432;2023-07-09T00:12:13;100240.69;;;16.73;69.53
4022;BME280;2025;48.260;16.432;2023-07-09T00:14:41;100246.22;;;16.72;69.97
4022;BME280;2025;48.260;16.432;2023-07-09T00:17:10;100244.78;;;16.69;70.05
4022;BME280;2025;48.260;16.432;2023-07-09T00:19:37;100238.63;;;16.69;69.87
4022;BME280;2025;48.260;16.432;2023-07-09T00:22:14;100239.66;;;16.68;69.91
4022;BME280;2025;48.260;16.432;2023-07-09T00:24:43;100247.19;;;16.64;69.92
4022;BME280;2025;48.260;16.432;2023-07-09T00:27:13;100245.56;;;16.63;69.73
4022;BME280;2025;48.260;16.432;2023-07-09T00:29:40;100248.41;;;16.61;70.99
4022;BME280;2025;48.260;16.432;2023-07-09T00:32:18;100253.09;;;16.59;70.90
4022;BME280;2025;48.260;16.432;2023-07-09T00:34:45;100252.50;;;16.57;71.25
4022;BME280;2025;48.260;16.432;2023-07-09T00:37:14;100253.88;;;16.53;71.38
4022;BME280;2025;48.260;16.432;2023-07-09T00:39:42;100255.47;;;16.48;71.60
4022;BME280;2025;48.260;16.432;2023-07-09T00:42:16;100248.09;;;16.43;71.56
4022;BME280;2025;48.260;16.432;2023-07-09T00:44:44;100255.47;;;16.41;71.43
4022;BME280;2025;48.260;16.432;2023-07-09T00:47:28;100253.16;;;16.38;71.25
4022;BME280;2025;48.260;16.432;2023-07-09T00:50:09;100259.06;;;16.33;71.51
4022;BME280;2025;48.260;16.432;2023-07-09T00:52:46;100268.06;;;16.32;71.68
4022;BME280;2025;48.260;16.432;2023-07-09T00:55:21;100258.84;;;16.28;71.68
4022;BME280;2025;48.260;16.432;2023-07-09T00:57:54;100266.81;;;16.28;71.85
4022;BME280;2025;48.260;16.432;2023-07-09T01:00:26;100272.53;;;16.25;72.28
4022;BME280;2025;48.260;16.432;2023-07-09T01:02:55;100272.25;;;16.20;72.53
4022;BME280;2025;48.260;16.432;2023-07-09T01:05:23;100272.66;;;16.17;72.57
4022;BME280;2025;48.260;16.432;2023-07-09T01:07:50;100268.56;;;16.14;72.70
4022;BME280;2025;48.260;16.432;2023-07-09T01:10:18;100266.47;;;16.10;72.74
4022;BME280;2025;48.260;16.432;2023-07-09T01:12:47;100269.31;;;16.08;72.93
4022;BME280;2025;48.260;16.432;2023-07-09T01:15:17;100269.53;;;16.07;73.40
4022;BME280;2025;48.260;16.432;2023-07-09T01:17:44;100266.06;;;16.06;73.62
4022;BME280;2025;48.260;16.432;2023-07-09T01:20:17;100260.91;;;16.05;74.39
4022;BME280;2025;48.260;16.432;2023-07-09T01:22:49;100257.44;;;16.04;74.15
4022;BME280;2025;48.260;16.432;2023-07-09T01:25:16;100256.38;;;15.98;74.80
4022;BME280;2025;48.260;16.432;2023-07-09T01:27:45;100270.44;;;15.92;75.33
4022;BME280;2025;48.260;16.432;2023-07-09T01:30:16;100265.25;;;15.84;75.70
4022;BME280;2025;48.260;16.432;2023-07-09T01:32:48;100270.72;;;15.83;75.92
4022;BME280;2025;48.260;16.432;2023-07-09T01:35:16;100265.41;;;15.83;76.03
4022;BME280;2025;48.260;16.432;2023-07-09T01:37:44;100266.44;;;15.82;76.58
4022;BME280;2025;48.260;16.432;2023-07-09T01:40:16;100272.78;;;15.80;76.72
4022;BME280;2025;48.260;16.432;2023-07-09T01:42:44;100265.00;;;15.79;76.95
4022;BME280;2025;48.260;16.432;2023-07-09T01:45:11;100266.00;;;15.78;77.04
4022;BME280;2025;48.260;16.432;2023-07-09T01:47:38;100268.66;;;15.78;77.13
4022;BME280;2025;48.260;16.432;2023-07-09T01:50:07;100272.34;;;15.77;77.33
4022;BME280;2025;48.260;16.432;2023-07-09T01:52:36;100272.34;;;15.77;77.45
4022;BME280;2025;48.260;16.432;2023-07-09T01:55:04;100273.72;;;15.73;77.65
4022;BME280;2025;48.260;16.432;2023-07-09T01:57:33;100276.91;;;15.68;78.10
4022;BME280;2025;48.260;16.432;2023-07-09T02:00:02;100279.56;;;15.68;78.07
4022;BME280;2025;48.260;16.432;2023-07-09T02:02:31;100275.28;;;15.67;77.86
4022;BME280;2025;48.260;16.432;2023-07-09T02:04:58;100281.56;;;15.66;77.91
4022;BME280;2025;48.260;16.432;2023-07-09T02:07:26;100269.50;;;15.64;77.99
4022;BME280;2025;48.260;16.432;2023-07-09T02:09:53;100274.19;;;15.62;78.02
4022;BME280;2025;48.260;16.432;2023-07-09T02:12:20;100269.91;;;15.60;78.09
4022;BME280;2025;48.260;16.432;2023-07-09T02:14:49;100278.25;;;15.57;78.33
4022;BME280;2025;48.260;16.432;2023-07-09T02:17:16;100273.94;;;15.56;78.20
4022;BME280;2025;48.260;16.432;2023-07-09T02:19:43;100274.31;;;15.53;78.27
4022;BME280;2025;48.260;16.432;2023-07-09T02:22:11;100274.31;;;15.53;78.37
4022;BME280;2025;48.260;16.432;2023-07-09T02:24:38;100286.97;;;15.51;78.57
4022;BME280;2025;48.260;16.432;2023-07-09T02:27:08;100285.94;;;15.52;78.65
4022;BME280;2025;48.260;16.432;2023-07-09T02:29:36;100288.34;;;15.47;79.19
4022;BME280;2025;48.260;16.432;2023-07-09T02:32:06;100291.75;;;15.41;79.33
4022;BME280;2025;48.260;16.432;2023-07-09T02:34:34;100295.22;;;15.42;79.51
4022;BME280;2025;48.260;16.432;2023-07-09T02:37:01;100295.06;;;15.43;79.59
4022;BME280;2025;48.260;16.432;2023-07-09T02:39:28;100293.00;;;15.45;79.61
4022;BME280;2025;48.260;16.432;2023-07-09T02:41:55;100300.06;;;15.38;80.18
4022;BME280;2025;48.260;16.432;2023-07-09T02:44:22;100290.88;;;15.34;80.24
4022;BME280;2025;48.260;16.432;2023-07-09T02:46:49;100294.50;;;15.33;80.32
4022;BME280;2025;48.260;16.432;2023-07-09T02:49:18;100298.81;;;15.34;80.36
4022;BME280;2025;48.260;16.432;2023-07-09T02:51:45;100294.91;;;15.30;80.77
4022;BME280;2025;48.260;16.432;2023-07-09T02:54:12;100303.84;;;15.29;80.93
4022;BME280;2025;48.260;16.432;2023-07-09T02:56:39;100291.59;;;15.28;80.88
4022;BME280;2025;48.260;16.432;2023-07-09T02:59:06;100297.72;;;15.28;80.90
4022;BME280;2025;48.260;16.432;2023-07-09T03:01:33;100302.22;;;15.28;80.99
4022;BME280;2025;48.260;16.432;2023-07-09T03:04:01;100302.59;;;15.25;81.35
4022;BME280;2025;48.260;16.432;2023-07-09T03:06:31;100301.75;;;15.24;81.35
4022;BME280;2025;48.260;16.432;2023-07-09T03:09:00;100307.91;;;15.25;81.35
4022;BME280;2025;48.260;16.432;2023-07-09T03:11:29;100309.53;;;15.26;81.56
4022;BME280;2025;48.260;16.432;2023-07-09T03:13:57;100307.28;;;15.23;81.86
4022;BME280;2025;48.260;16.432;2023-07-09T03:16:25;100314.59;;;15.21;81.64
4022;BME280;2025;48.260;16.432;2023-07-09T03:18:52;100320.88;;;15.20;81.86
4022;BME280;2025;48.260;16.432;2023-07-09T03:21:19;100334.34;;;15.18;82.10
4022;BME280;2025;48.260;16.432;2023-07-09T03:23:48;100329.69;;;15.20;82.14
4022;BME280;2025;48.260;16.432;2023-07-09T03:26:15;100323.28;;;15.14;82.02
4022;BME280;2025;48.260;16.432;2023-07-09T03:28:42;100328.59;;;15.14;82.21
4022;BME280;2025;48.260;16.432;2023-07-09T03:31:09;100329.06;;;15.18;82.03
4022;BME280;2025;48.260;16.432;2023-07-09T03:33:36;100329.22;;;15.16;82.52
4022;BME280;2025;48.260;16.432;2023-07-09T03:36:04;100334.34;;;15.18;82.37
4022;BME280;2025;48.260;16.432;2023-07-09T03:38:31;100333.16;;;15.21;82.77
4022;BME280;2025;48.260;16.432;2023-07-09T03:41:00;100338.09;;;15.24;82.63
4022;BME280;2025;48.260;16.432;2023-07-09T03:43:27;100341.00;;;15.29;82.52
4022;BME280;2025;48.260;16.432;2023-07-09T03:45:53;100330.63;;;15.49;81.84
4022;BME280;2025;48.260;16.432;2023-07-09T03:48:20;100330.72;;;15.55;82.16
4022;BME280;2025;48.260;16.432;2023-07-09T03:50:48;100330.56;;;15.64;81.87
4022;BME280;2025;48.260;16.432;2023-07-09T03:53:16;100326.94;;;15.65;81.89
4022;BME280;2025;48.260;16.432;2023-07-09T03:55:45;100323.53;;;15.71;81.80
4022;BME280;2025;48.260;16.432;2023-07-09T03:58:14;100321.72;;;15.71;81.45
4022;BME280;2025;48.260;16.432;2023-07-09T04:00:41;100320.94;;;15.77;81.16
4022;BME280;2025;48.260;16.432;2023-07-09T04:03:08;100321.81;;;15.85;81.11
4022;BME280;2025;48.260;16.432;2023-07-09T04:05:35;100316.81;;;15.96;81.38
4022;BME280;2025;48.260;16.432;2023-07-09T04:08:03;100324.69;;;16.05;81.41
4022;BME280;2025;48.260;16.432;2023-07-09T04:10:31;100332.13;;;16.16;80.47
4022;BME280;2025;48.260;16.432;2023-07-09T04:12:58;100331.91;;;16.39;79.07
4022;BME280;2025;48.260;16.432;2023-07-09T04:15:26;100332.25;;;16.57;78.87
4022;BME280;2025;48.260;16.432;2023-07-09T04:17:53;100330.69;;;16.70;78.90
4022;BME280;2025;48.260;16.432;2023-07-09T04:20:20;100326.91;;;16.79;78.77
4022;BME280;2025;48.260;16.432;2023-07-09T04:22:47;100326.09;;;16.85;78.44
4022;BME280;2025;48.260;16.432;2023-07-09T04:25:14;100333.75;;;16.95;77.86
4022;BME280;2025;48.260;16.432;2023-07-09T04:27:41;100337.66;;;17.05;78.30
4022;BME280;2025;48.260;16.432;2023-07-09T04:30:10;100333.81;;;17.15;77.51
4022;BME280;2025;48.260;16.432;2023-07-09T04:32:39;100341.88;;;17.28;77.60
4022;BME280;2025;48.260;16.432;2023-07-09T04:35:09;100334.94;;;17.40;76.54
4022;BME280;2025;48.260;16.432;2023-07-09T04:37:37;100349.75;;;17.56;75.70
4022;BME280;2025;48.260;16.432;2023-07-09T04:40:05;100339.34;;;17.75;74.53
4022;BME280;2025;48.260;16.432;2023-07-09T04:42:36;100341.06;;;18.09;71.72
4022;BME280;2025;48.260;16.432;2023-07-09T04:45:05;100351.91;;;18.34;70.23
4022;BME280;2025;48.260;16.432;2023-07-09T04:47:32;100352.97;;;18.46;70.10
4022;BME280;2025;48.260;16.432;2023-07-09T04:50:01;100358.88;;;18.55;70.10
4022;BME280;2025;48.260;16.432;2023-07-09T04:52:29;100355.59;;;18.60;70.66
4022;BME280;2025;48.260;16.432;2023-07-09T04:54:56;100356.00;;;18.70;69.45
4022;BME280;2025;48.260;16.432;2023-07-09T04:59:51;100368.94;;;18.93;68.42
4022;BME280;2025;48.260;16.432;2023-07-09T05:02:18;100367.03;;;19.07;68.79
4022;BME280;2025;48.260;16.432;2023-07-09T05:04:45;100369.44;;;19.22;67.28
4022;BME280;2025;48.260;16.432;2023-07-09T05:07:14;100368.34;;;19.43;66.35
4022;BME280;2025;48.260;16.432;2023-07-09T05:09:41;100362.31;;;19.61;64.74
4022;BME280;2025;48.260;16.432;2023-07-09T05:12:08;100354.47;;;19.66;65.11
4022;BME280;2025;48.260;16.432;2023-07-09T05:14:35;100354.66;;;19.64;64.09
4022;BME280;2025;48.260;16.432;2023-07-09T05:17:02;100369.25;;;19.75;64.41
4022;BME280;2025;48.260;16.432;2023-07-09T05:19:30;100366.06;;;19.91;63.55
4022;BME280;2025;48.260;16.432;2023-07-09T05:21:57;100368.50;;;19.93;64.69
4022;BME280;2025;48.260;16.432;2023-07-09T05:24:26;100366.81;;;19.98;63.95
4022;BME280;2025;48.260;16.432;2023-07-09T05:26:53;100367.41;;;20.07;63.96
4022;BME280;2025;48.260;16.432;2023-07-09T05:29:20;100360.19;;;20.08;64.25
4022;BME280;2025;48.260;16.432;2023-07-09T05:31:47;100361.31;;;20.18;63.23
4022;BME280;2025;48.260;16.432;2023-07-09T05:34:14;100365.56;;;20.33;63.03
4022;BME280;2025;48.260;16.432;2023-07-09T05:36:41;100360.97;;;20.40;63.22
4022;BME280;2025;48.260;16.432;2023-07-09T05:39:08;100365.66;;;20.45;62.54
4022;BME280;2025;48.260;16.432;2023-07-09T05:41:36;100363.13;;;20.50;63.04
4022;BME280;2025;48.260;16.432;2023-07-09T05:44:03;100370.47;;;20.61;62.08
4022;BME280;2025;48.260;16.432;2023-07-09T05:46:34;100370.19;;;20.88;59.77
4022;BME280;2025;48.260;16.432;2023-07-09T05:49:02;100377.06;;;21.02;59.11
4022;BME280;2025;48.260;16.432;2023-07-09T05:51:29;100383.53;;;20.94;61.14
4022;BME280;2025;48.260;16.432;2023-07-09T05:53:56;100389.84;;;21.00;60.57
4022;BME280;2025;48.260;16.432;2023-07-09T05:56:23;100385.81;;;21.09;59.54
4022;BME280;2025;48.260;16.432;2023-07-09T05:58:52;100381.59;;;21.20;59.84
4022;BME280;2025;48.260;16.432;2023-07-09T06:01:19;100385.59;;;21.29;60.14
4022;BME280;2025;48.260;16.432;2023-07-09T06:03:46;100395.34;;;21.23;60.16
4022;BME280;2025;48.260;16.432;2023-07-09T06:06:14;100386.94;;;21.20;59.69
4022;BME280;2025;48.260;16.432;2023-07-09T06:08:41;100389.84;;;21.18;60.91
4022;BME280;2025;48.260;16.432;2023-07-09T06:11:09;100384.81;;;21.10;60.80
4022;BME280;2025;48.260;16.432;2023-07-09T06:13:35;100386.00;;;21.14;60.11
4022;BME280;2025;48.260;16.432;2023-07-09T06:16:04;100389.63;;;21.20;62.65
4022;BME280;2025;48.260;16.432;2023-07-09T06:18:32;100383.88;;;21.35;60.73
4022;BME280;2025;48.260;16.432;2023-07-09T06:21:01;100388.81;;;21.38;64.36
4022;BME280;2025;48.260;16.432;2023-07-09T06:23:28;100386.94;;;21.38;59.74
4022;BME280;2025;48.260;16.432;2023-07-09T06:25:56;100384.22;;;21.45;59.63
4022;BME280;2025;48.260;16.432;2023-07-09T06:28:24;100388.13;;;21.61;60.85
4022;BME280;2025;48.260;16.432;2023-07-09T06:30:51;100382.44;;;21.69;58.49
4022;BME280;2025;48.260;16.432;2023-07-09T06:33:20;100385.50;;;21.73;57.70
4022;BME280;2025;48.260;16.432;2023-07-09T06:35:48;100396.94;;;21.80;59.86
4022;BME280;2025;48.260;16.432;2023-07-09T06:38:15;100389.03;;;21.85;59.01
4022;BME280;2025;48.260;16.432;2023-07-09T06:40:43;100380.56;;;22.00;57.51
4022;BME280;2025;48.260;16.432;2023-07-09T06:43:10;100397.28;;;22.14;57.69
4022;BME280;2025;48.260;16.432;2023-07-09T06:45:37;100392.34;;;22.41;56.58
4022;BME280;2025;48.260;16.432;2023-07-09T06:48:04;100389.09;;;22.50;61.99
4022;BME280;2025;48.260;16.432;2023-07-09T06:50:34;100394.69;;;22.72;56.14
4022;BME280;2025;48.260;16.432;2023-07-09T06:53:01;100399.94;;;22.91;54.07
4022;BME280;2025;48.260;16.432;2023-07-09T06:55:28;100394.13;;;22.82;56.13
4022;BME280;2025;48.260;16.432;2023-07-09T06:57:56;100393.84;;;22.84;58.41
4022;BME280;2025;48.260;16.432;2023-07-09T07:00:23;100398.09;;;23.03;55.80
4022;BME280;2025;48.260;16.432;2023-07-09T07:02:50;100397.94;;;22.98;54.51
4022;BME280;2025;48.260;16.432;2023-07-09T07:05:18;100402.50;;;22.98;63.17
4022;BME280;2025;48.260;16.432;2023-07-09T07:07:46;100401.81;;;23.02;58.57
4022;BME280;2025;48.260;16.432;2023-07-09T07:10:13;100400.88;;;23.08;57.74
4022;BME280;2025;48.260;16.432;2023-07-09T07:12:42;100403.78;;;23.19;59.03
4022;BME280;2025;48.260;16.432;2023-07-09T07:15:10;100412.03;;;23.41;56.96
4022;BME280;2025;48.260;16.432;2023-07-09T07:17:38;100399.00;;;23.49;58.05
4022;BME280;2025;48.260;16.432;2023-07-09T07:20:06;100393.53;;;23.73;53.28
4022;BME280;2025;48.260;16.432;2023-07-09T07:22:34;100389.13;;;23.79;55.17
4022;BME280;2025;48.260;16.432;2023-07-09T07:25:03;100395.97;;;23.86;53.21
4022;BME280;2025;48.260;16.432;2023-07-09T07:27:30;100381.66;;;23.97;54.23
4022;BME280;2025;48.260;16.432;2023-07-09T07:29:57;100379.31;;;24.01;52.94
4022;BME280;2025;48.260;16.432;2023-07-09T07:32:24;100391.47;;;24.04;57.44
4022;BME280;2025;48.260;16.432;2023-07-09T07:34:51;100375.91;;;24.06;56.16
4022;BME280;2025;48.260;16.432;2023-07-09T07:37:20;100378.66;;;24.11;52.32
4022;BME280;2025;48.260;16.432;2023-07-09T07:39:47;100365.88;;;24.18;55.89
4022;BME280;2025;48.260;16.432;2023-07-09T07:42:16;100372.22;;;24.29;54.04
4022;BME280;2025;48.260;16.432;2023-07-09T07:44:43;100373.50;;;24.26;53.12
4022;BME280;2025;48.260;16.432;2023-07-09T07:47:10;100371.66;;;24.44;52.82
4022;BME280;2025;48.260;16.432;2023-07-09T07:49:37;100365.75;;;24.64;51.48
4022;BME280;2025;48.260;16.432;2023-07-09T07:52:05;100374.47;;;24.71;49.70
4022;BME280;2025;48.260;16.432;2023-07-09T07:54:32;100358.16;;;24.77;50.01
4022;BME280;2025;48.260;16.432;2023-07-09T07:57:00;100364.03;;;24.74;48.39
4022;BME280;2025;48.260;16.432;2023-07-09T07:59:28;100359.97;;;24.94;48.22
4022;BME280;2025;48.260;16.432;2023-07-09T08:01:55;100362.06;;;25.09;48.72
4022;BME280;2025;48.260;16.432;2023-07-09T08:04:22;100360.75;;;25.11;53.86
4022;BME280;2025;48.260;16.432;2023-07-09T08:06:49;100354.75;;;25.04;49.98
4022;BME280;2025;48.260;16.432;2023-07-09T08:09:17;100360.66;;;25.23;48.06
4022;BME280;2025;48.260;16.432;2023-07-09T08:11:45;100358.00;;;25.28;49.60
4022;BME280;2025;48.260;16.432;2023-07-09T08:14:11;100361.94;;;25.42;49.68
4022;BME280;2025;48.260;16.432;2023-07-09T08:16:40;100355.97;;;25.62;46.59
4022;BME280;2025;48.260;16.432;2023-07-09T08:19:07;100361.22;;;25.74;48.42
4022;BME280;2025;48.260;16.432;2023-07-09T08:21:34;100361.28;;;25.84;46.89
4022;BME280;2025;48.260;16.432;2023-07-09T08:24:02;100360.56;;;25.89;47.32
4022;BME280;2025;48.260;16.432;2023-07-09T08:26:29;100366.09;;;26.04;46.67
4022;BME280;2025;48.260;16.432;2023-07-09T08:28:56;100363.78;;;26.18;46.52
4022;BME280;2025;48.260;16.432;2023-07-09T08:31:23;100366.94;;;26.42;47.05
4022;BME280;2025;48.260;16.432;2023-07-09T08:33:52;100362.63;;;26.46;44.90
4022;BME280;2025;48.260;16.432;2023-07-09T08:36:19;100369.69;;;26.53;45.55
4022;BME280;2025;48.260;16.432;2023-07-09T08:38:46;100366.28;;;26.62;46.01
4022;BME280;2025;48.260;16.432;2023-07-09T08:41:24;100367.25;;;26.94;43.82
4022;BME280;2025;48.260;16.432;2023-07-09T08:43:59;100363.59;;;27.20;43.00
4022;BME280;2025;48.260;16.432;2023-07-09T08:46:34;100362.53;;;27.21;43.61
4022;BME280;2025;48.260;16.432;2023-07-09T08:49:13;100357.44;;;27.35;43.18
4022;BME280;2025;48.260;16.432;2023-07-09T08:51:42;100361.56;;;27.53;42.49
4022;BME280;2025;48.260;16.432;2023-07-09T08:54:15;100359.66;;;27.59;42.68
4022;BME280;2025;48.260;16.432;2023-07-09T08:56:45;100349.69;;;27.74;45.42
4022;BME280;2025;48.260;16.432;2023-07-09T08:59:15;100358.91;;;27.79;44.78
4022;BME280;2025;48.260;16.432;2023-07-09T09:01:48;100358.38;;;27.92;41.69
4022;BME280;2025;48.260;16.432;2023-07-09T09:04:21;100356.50;;;28.13;40.60
4022;BME280;2025;48.260;16.432;2023-07-09T09:06:56;100360.56;;;28.21;39.02
4022;BME280;2025;48.260;16.432;2023-07-09T09:09:32;100364.06;;;28.01;42.30
4022;BME280;2025;48.260;16.432;2023-07-09T09:12:08;100359.75;;;28.15;40.26
4022;BME280;2025;48.260;16.432;2023-07-09T09:14:42;100359.72;;;28.35;39.48
4022;BME280;2025;48.260;16.432;2023-07-09T09:17:13;100361.34;;;28.42;39.26
4022;BME280;2025;48.260;16.432;2023-07-09T09:19:47;100348.63;;;28.42;38.80
4022;BME280;2025;48.260;16.432;2023-07-09T09:22:17;100349.69;;;28.41;40.93
4022;BME280;2025;48.260;16.432;2023-07-09T09:24:55;100357.00;;;28.51;44.00
4022;BME280;2025;48.260;16.432;2023-07-09T09:27:23;100357.56;;;28.58;41.00
4022;BME280;2025;48.260;16.432;2023-07-09T09:29:50;100355.91;;;28.62;38.69
4022;BME280;2025;48.260;16.432;2023-07-09T09:32:22;100357.53;;;28.68;39.46
4022;BME280;2025;48.260;16.432;2023-07-09T09:34:53;100356.72;;;28.68;37.68
4022;BME280;2025;48.260;16.432;2023-07-09T09:37:25;100354.50;;;28.80;41.06
4022;BME280;2025;48.260;16.432;2023-07-09T09:39:53;100366.69;;;28.93;38.25
4022;BME280;2025;48.260;16.432;2023-07-09T09:42:20;100354.41;;;29.11;43.11
4022;BME280;2025;48.260;16.432;2023-07-09T09:44:49;100352.50;;;29.06;37.55
4022;BME280;2025;48.260;16.432;2023-07-09T09:47:16;100349.81;;;29.16;35.83
4022;BME280;2025;48.260;16.432;2023-07-09T09:49:43;100358.13;;;29.30;36.54
4022;BME280;2025;48.260;16.432;2023-07-09T09:52:15;100352.88;;;29.44;33.30
4022;BME280;2025;48.260;16.432;2023-07-09T09:54:50;100350.69;;;29.46;36.68
4022;BME280;2025;48.260;16.432;2023-07-09T09:57:20;100351.56;;;29.36;35.79
4022;BME280;2025;48.260;16.432;2023-07-09T09:59:47;100351.59;;;29.31;33.99
4022;BME280;2025;48.260;16.432;2023-07-09T10:02:17;100347.44;;;29.44;33.58
4022;BME280;2025;48.260;16.432;2023-07-09T10:04:44;100353.16;;;29.48;32.50
4022;BME280;2025;48.260;16.432;2023-07-09T10:07:21;100344.66;;;29.59;30.70
4022;BME280;2025;48.260;16.432;2023-07-09T10:09:51;100350.03;;;29.70;31.00
4022;BME280;2025;48.260;16.432;2023-07-09T10:12:32;100338.84;;;29.81;30.30
4022;BME280;2025;48.260;16.432;2023-07-09T10:15:12;100340.41;;;29.88;30.33
4022;BME280;2025;48.260;16.432;2023-07-09T10:17:45;100335.41;;;30.00;29.09
4022;BME280;2025;48.260;16.432;2023-07-09T10:20:22;100344.25;;;30.16;28.64
4022;BME280;2025;48.260;16.432;2023-07-09T10:22:54;100334.13;;;30.27;26.51
4022;BME280;2025;48.260;16.432;2023-07-09T10:25:30;100326.31;;;30.49;26.56
4022;BME280;2025;48.260;16.432;2023-07-09T10:28:22;100332.00;;;30.72;25.79
4022;BME280;2025;48.260;16.432;2023-07-09T10:31:01;100333.66;;;31.16;25.64
4022;BME280;2025;48.260;16.432;2023-07-09T10:33:49;100334.13;;;31.61;29.01
4022;BME280;2025;48.260;16.432;2023-07-09T10:36:30;100320.56;;;32.26;25.06
4022;BME280;2025;48.260;16.432;2023-07-09T10:39:03;100317.47;;;32.74;25.88
4022;BME280;2025;48.260;16.432;2023-07-09T10:41:35;100313.78;;;33.21;22.84
4022;BME280;2025;48.260;16.432;2023-07-09T10:44:08;100307.44;;;32.97;22.98
4022;BME280;2025;48.260;16.432;2023-07-09T10:46:39;100312.78;;;32.89;28.09
4022;BME280;2025;48.260;16.432;2023-07-09T10:49:10;100308.44;;;33.02;27.69
4022;BME280;2025;48.260;16.432;2023-07-09T10:51:40;100303.91;;;32.97;23.01
4022;BME280;2025;48.260;16.432;2023-07-09T10:54:14;100307.56;;;32.79;23.03
4022;BME280;2025;48.260;16.432;2023-07-09T10:56:42;100302.13;;;32.51;24.26
4022;BME280;2025;48.260;16.432;2023-07-09T10:59:18;100307.78;;;32.68;22.90
4022;BME280;2025;48.260;16.432;2023-07-09T11:01:50;100298.59;;;32.64;23.99
4022;BME280;2025;48.260;16.432;2023-07-09T11:04:27;100291.84;;;32.62;23.13
4022;BME280;2025;48.260;16.432;2023-07-09T11:06:59;100291.31;;;32.73;23.47
4022;BME280;2025;48.260;16.432;2023-07-09T11:09:32;100294.34;;;32.72;23.22
4022;BME280;2025;48.260;16.432;2023-07-09T11:12:02;100292.91;;;32.74;21.66
4022;BME280;2025;48.260;16.432;2023-07-09T11:14:33;100295.66;;;32.74;25.11
4022;BME280;2025;48.260;16.432;2023-07-09T11:17:02;100298.06;;;32.90;22.63
4022;BME280;2025;48.260;16.432;2023-07-09T11:19:30;100284.31;;;32.95;21.43
4022;BME280;2025;48.260;16.432;2023-07-09T11:22:03;100288.56;;;32.87;26.63
4022;BME280;2025;48.260;16.432;2023-07-09T11:24:35;100281.72;;;33.26;21.91
4022;BME280;2025;48.260;16.432;2023-07-09T11:27:16;100284.03;;;33.33;20.91
4022;BME280;2025;48.260;16.432;2023-07-09T11:29:46;100285.56;;;33.25;24.88
4022;BME280;2025;48.260;16.432;2023-07-09T11:32:18;100284.19;;;33.14;24.11
4022;BME280;2025;48.260;16.432;2023-07-09T11:34:47;100286.84;;;33.05;23.14
4022;BME280;2025;48.260;16.432;2023-07-09T11:37:15;100279.16;;;33.07;24.02
4022;BME280;2025;48.260;16.432;2023-07-09T11:39:46;100286.41;;;33.12;23.82
4022;BME280;2025;48.260;16.432;2023-07-09T11:42:24;100283.72;;;33.34;22.25
4022;BME280;2025;48.260;16.432;2023-07-09T11:44:58;100284.25;;;33.59;20.55
4022;BME280;2025;48.260;16.432;2023-07-09T11:47:30;100284.34;;;33.54;21.47
4022;BME280;2025;48.260;16.432;2023-07-09T11:50:03;100282.53;;;33.49;22.72
4022;BME280;2025;48.260;16.432;2023-07-09T11:52:33;100278.41;;;33.74;23.42
4022;BME280;2025;48.260;16.432;2023-07-09T11:55:29;100268.41;;;34.01;20.82
4022;BME280;2025;48.260;16.432;2023-07-09T11:58:00;100260.38;;;34.27;20.07
4022;BME280;2025;48.260;16.432;2023-07-09T12:00:28;100260.03;;;34.20;21.96
4022;BME280;2025;48.260;16.432;2023-07-09T12:02:57;100259.44;;;34.00;21.03
4022;BME280;2025;48.260;16.432;2023-07-09T12:05:28;100254.31;;;33.76;23.53
4022;BME280;2025;48.260;16.432;2023-07-09T12:07:55;100262.97;;;34.01;22.98
4022;BME280;2025;48.260;16.432;2023-07-09T12:10:25;100249.69;;;34.08;20.50
4022;BME280;2025;48.260;16.432;2023-07-09T12:12:58;100248.34;;;33.97;18.19
4022;BME280;2025;48.260;16.432;2023-07-09T12:15:28;100251.59;;;34.08;20.67
4022;BME280;2025;48.260;16.432;2023-07-09T12:17:56;100252.47;;;34.17;19.06
4022;BME280;2025;48.260;16.432;2023-07-09T12:20:24;100257.31;;;34.20;22.02
4022;BME280;2025;48.260;16.432;2023-07-09T12:22:51;100251.66;;;34.16;19.16
4022;BME280;2025;48.260;16.432;2023-07-09T12:25:22;100245.09;;;33.95;19.23
4022;BME280;2025;48.260;16.432;2023-07-09T12:27:50;100247.63;;;33.83;18.41
4022;BME280;2025;48.260;16.432;2023-07-09T12:30:19;100245.28;;;33.67;23.23
4022;BME280;2025;48.260;16.432;2023-07-09T12:32:48;100249.03;;;33.80;20.31
4022;BME280;2025;48.260;16.432;2023-07-09T12:35:17;100234.94;;;33.87;19.01
4022;BME280;2025;48.260;16.432;2023-07-09T12:37:47;100229.38;;;34.00;18.86
4022;BME280;2025;48.260;16.432;2023-07-09T12:40:16;100227.78;;;33.99;18.70
4022;BME280;2025;48.260;16.432;2023-07-09T12:42:44;100238.44;;;34.10;20.38
4022;BME280;2025;48.260;16.432;2023-07-09T12:45:16;100218.13;;;34.02;19.03
4022;BME280;2025;48.260;16.432;2023-07-09T12:47:47;100234.63;;;33.88;18.93
4022;BME280;2025;48.260;16.432;2023-07-09T12:50:25;100222.13;;;33.65;20.05
4022;BME280;2025;48.260;16.432;2023-07-09T12:52:55;100212.91;;;33.83;21.06
4022;BME280;2025;48.260;16.432;2023-07-09T12:55:25;100210.25;;;34.00;19.43
4022;BME280;2025;48.260;16.432;2023-07-09T12:57:55;100209.94;;;34.02;21.44
4022;BME280;2025;48.260;16.432;2023-07-09T13:00:26;100207.25;;;33.71;19.53
4022;BME280;2025;48.260;16.432;2023-07-09T13:02:58;100196.75;;;33.64;19.13
4022;BME280;2025;48.260;16.432;2023-07-09T13:05:26;100199.75;;;33.85;18.80
4022;BME280;2025;48.260;16.432;2023-07-09T13:07:54;100194.53;;;34.06;18.26
4022;BME280;2025;48.260;16.432;2023-07-09T13:10:27;100200.13;;;34.01;19.35
4022;BME280;2025;48.260;16.432;2023-07-09T13:12:55;100190.03;;;34.02;19.40
4022;BME280;2025;48.260;16.432;2023-07-09T13:15:25;100193.69;;;34.37;19.56